Texhoma, OK (73949)

8:37 AM CST on December 18, 2014 (GMT -0600)
Guymon Municipal | Change Station
CLOSE
Current Station
Airport
Location: Guymon,
Elevation: 3123 ft
Nearby Weather Stations

Elev 3123 ft 36.68 °N, 101.51 °W | Updated 11 minutes ago

Overcast
Overcast
34 °F
Feels Like 27 °F
N
9
Wind Variable Wind from NNW

Today
High -- | Low -- °F
--% Chance of Precip.
Yesterday
High -- | Low -- °F
Precip. -- in
7:53 AM 5:33 PM
Waning Crescent, 14% visible
Pressure 30.10 in
Visibility 10.0 miles
Clouds Mostly Cloudy 600 ft
Overcast 1600 ft
Windchill 27 °F
Dew Point 31 °F
Humidity 89%
Rainfall 0.01 in
Snow Depth Not available.
UV 0 out of 12
Pollen 6.60 out of 12
Air Quality Not available.
Flu Activity Not available.
SPECI KGUY 181426Z AUTO 33008KT 10SM BKN006 OVC016 01/M01 A3010 RMK AO2 T00111006

More Conditions Fewer Conditions

Pressure 30.10 in
Visibility 10.0 miles
Clouds Mostly Cloudy 600 ft
Overcast 1600 ft
Windchill 27 °F
Dew Point 31 °F
Humidity 89%
Rainfall 0.01 in
Snow Depth Not available.
UV 0 out of 12
Pollen 6.60 out of 12
Air Quality Not available.
Flu Activity Not available.
SPECI KGUY 181426Z AUTO 33008KT 10SM BKN006 OVC016 01/M01 A3010 RMK AO2 T00111006

More Conditions Fewer Conditions

Nowcast | as of 8:00 am CST on December 18, 2014

Areas of fog and drizzle will persist across much of the Oklahoma and Texas panhandles through 10 am. Visibilities will be reduced to below 2 miles at times. Conditions are expected to improve by late this morning.

×

10-Day Weather Forecast

Almanac

Astronomy

Dec. 18, 2014 Rise Set
Actual Time
Civil Twilight
Nautical Twilight
Astronomical Twilight
Moon
Length of Visible Light
Length of Day
Tomorrow will be .
, % of the Moon is Illuminated

Today's Extremes

State Highs State Lows

Community

WunderPhotos

Upload Photos

1,778,929 photos uploaded!

WunderBlogs® & News

Nearby

Air Quality

  Air Quality AQ Index Pollutant
Not available.

Snow Depth

Station Depth Elevation

Earthquake Activity

City Distance Mag. Time & Date
Minimum magnitude displayed is 2.5.

Coastal Water Temperatures

Place Temperature

Nearby Weather Stations